| Date | Time | Temp. (oF) | Dew Point (oF) | Rel. Hum. (%) | Press. (in.) | Wind Dir. | Wind Speed (mph) | Hourly Rainfall (in.) |
|
|---|---|---|---|---|---|---|---|---|---|
| 1 | 06/11 | 00:00 | 58 | 48 | 71 | 29.99 | S | 0 | 0.00 |
| 2 | 06/10 | 23:00 | 60 | 48 | 66 | 29.97 | S | 0 | 0.00 |
| 3 | 06/10 | 22:00 | 63 | 46 | 56 | 29.97 | SSW | 0 | 0.00 |
| 4 | 06/10 | 21:00 | 68 | 45 | 44 | 29.95 | SE | 0 | 0.00 |
| 5 | 06/10 | 20:00 | 74 | 44 | 35 | 29.95 | NE | 0 | 0.00 |
| 6 | 06/10 | 19:00 | 76 | 44 | 33 | 29.95 | N | 0 | 0.00 |
| 7 | 06/10 | 18:00 | 77 | 44 | 32 | 29.94 | NE | 0 | 0.00 |
| 8 | 06/10 | 17:00 | 76 | 43 | 32 | 29.95 | W | 5 | 0.00 |
| 9 | 06/10 | 16:00 | 76 | 43 | 32 | 29.96 | WSW | 4 | 0.00 |
| 10 | 06/10 | 15:00 | 76 | 43 | 32 | 29.98 | W | 2 | 0.00 |
| 11 | 06/10 | 14:00 | 74 | 42 | 33 | 30.00 | NNE | 5 | 0.00 |
| 12 | 06/10 | 13:00 | 72 | 43 | 36 | 30.01 | W | 1 | 0.00 |
| 13 | 06/10 | 12:00 | 70 | 40 | 35 | 30.03 | WSW | 0 | 0.00 |
| 14 | 06/10 | 11:00 | 68 | 41 | 38 | 30.03 | N | 7 | 0.00 |
| 15 | 06/10 | 10:00 | 66 | 40 | 39 | 30.03 | NNE | 10 | 0.00 |
| 16 | 06/10 | 09:00 | 63 | 40 | 43 | 30.03 | N | 4 | 0.00 |
| 17 | 06/10 | 08:00 | 60 | 38 | 45 | 30.02 | WSW | 4 | 0.00 |
| 18 | 06/10 | 07:00 | 56 | 39 | 53 | 30.00 | WSW | 2 | 0.00 |
| 19 | 06/10 | 06:00 | 54 | 36 | 52 | 29.99 | SSW | 0 | 0.00 |
| 20 | 06/10 | 05:00 | 56 | 36 | 48 | 29.97 | W | 5 | 0.00 |
| 21 | 06/10 | 04:00 | 57 | 37 | 48 | 29.96 | SW | 0 | 0.00 |
| 22 | 06/10 | 03:00 | 58 | 37 | 46 | 29.94 | SW | 2 | 0.00 |
| 23 | 06/10 | 02:00 | 59 | 36 | 43 | 29.93 | N | 5 | 0.00 |
| 24 | 06/10 | 01:00 | 61 | 38 | 43 | 29.92 | W | 2 | 0.00 |